sensor_id;sensor_type;location;lat;lon;timestamp;temperature;humidity
72865;DHT22;61000;48.120;11.548;2023-07-13T00:01:44;18.00;99.90
72865;DHT22;61000;48.120;11.548;2023-07-13T00:04:13;17.90;99.90
72865;DHT22;61000;48.120;11.548;2023-07-13T00:06:41;17.90;99.90
72865;DHT22;61000;48.120;11.548;2023-07-13T00:09:10;17.90;99.90
72865;DHT22;61000;48.120;11.548;2023-07-13T00:11:38;18.00;99.90
72865;DHT22;61000;48.120;11.548;2023-07-13T00:14:05;17.90;99.90
72865;DHT22;61000;48.120;11.548;2023-07-13T00:16:33;17.90;99.90
72865;DHT22;61000;48.120;11.548;2023-07-13T00:19:00;17.90;99.90
72865;DHT22;61000;48.120;11.548;2023-07-13T00:21:29;17.90;99.90
72865;DHT22;61000;48.120;11.548;2023-07-13T00:23:56;17.90;99.90
72865;DHT22;61000;48.120;11.548;2023-07-13T00:26:23;17.90;99.90
72865;DHT22;61000;48.120;11.548;2023-07-13T00:28:50;17.90;99.90
72865;DHT22;61000;48.120;11.548;2023-07-13T00:31:17;18.00;99.90
72865;DHT22;61000;48.120;11.548;2023-07-13T00:33:44;17.90;99.90
72865;DHT22;61000;48.120;11.548;2023-07-13T00:36:11;18.00;99.90
72865;DHT22;61000;48.120;11.548;2023-07-13T00:38:40;18.00;99.90
72865;DHT22;61000;48.120;11.548;2023-07-13T00:41:07;18.00;99.90
72865;DHT22;61000;48.120;11.548;2023-07-13T00:43:35;18.00;99.90
72865;DHT22;61000;48.120;11.548;2023-07-13T00:46:22;18.00;99.90
72865;DHT22;61000;48.120;11.548;2023-07-13T00:48:50;18.00;99.90
72865;DHT22;61000;48.120;11.548;2023-07-13T00:51:21;18.00;99.90
72865;DHT22;61000;48.120;11.548;2023-07-13T00:53:51;18.00;99.90
72865;DHT22;61000;48.120;11.548;2023-07-13T00:56:19;17.90;99.90
72865;DHT22;61000;48.120;11.548;2023-07-13T00:58:47;18.00;99.90
72865;DHT22;61000;48.120;11.548;2023-07-13T01:01:14;18.00;99.90
72865;DHT22;61000;48.120;11.548;2023-07-13T01:03:41;18.00;99.90
72865;DHT22;61000;48.120;11.548;2023-07-13T01:06:08;18.00;99.90
72865;DHT22;61000;48.120;11.548;2023-07-13T01:08:35;18.00;99.90
72865;DHT22;61000;48.120;11.548;2023-07-13T01:11:03;17.90;99.90
72865;DHT22;61000;48.120;11.548;2023-07-13T01:13:30;17.90;99.90
72865;DHT22;61000;48.120;11.548;2023-07-13T01:16:01;17.90;99.90
72865;DHT22;61000;48.120;11.548;2023-07-13T01:18:29;17.90;99.90
72865;DHT22;61000;48.120;11.548;2023-07-13T01:20:58;17.90;99.90
72865;DHT22;61000;48.120;11.548;2023-07-13T01:23:26;17.90;99.90
72865;DHT22;61000;48.120;11.548;2023-07-13T01:25:55;17.90;99.90
72865;DHT22;61000;48.120;11.548;2023-07-13T01:28:23;17.90;99.90
72865;DHT22;61000;48.120;11.548;2023-07-13T01:30:53;17.90;99.90
72865;DHT22;61000;48.120;11.548;2023-07-13T01:33:22;17.90;99.90
72865;DHT22;61000;48.120;11.548;2023-07-13T01:35:49;17.90;99.90
72865;DHT22;61000;48.120;11.548;2023-07-13T01:38:20;17.90;99.90
72865;DHT22;61000;48.120;11.548;2023-07-13T01:40:48;17.80;99.90
72865;DHT22;61000;48.120;11.548;2023-07-13T01:43:15;17.80;99.90
72865;DHT22;61000;48.120;11.548;2023-07-13T01:45:44;17.80;99.90
72865;DHT22;61000;48.120;11.548;2023-07-13T01:48:12;17.80;99.90
72865;DHT22;61000;48.120;11.548;2023-07-13T01:50:39;17.80;99.90
72865;DHT22;61000;48.120;11.548;2023-07-13T01:53:07;17.80;99.90
72865;DHT22;61000;48.120;11.548;2023-07-13T01:55:35;17.80;99.90
72865;DHT22;61000;48.120;11.548;2023-07-13T01:58:03;17.80;99.90
72865;DHT22;61000;48.120;11.548;2023-07-13T02:00:30;17.80;99.90
72865;DHT22;61000;48.120;11.548;2023-07-13T02:02:58;17.80;99.90
72865;DHT22;61000;48.120;11.548;2023-07-13T02:05:25;17.80;99.90
72865;DHT22;61000;48.120;11.548;2023-07-13T02:07:52;17.80;99.90
72865;DHT22;61000;48.120;11.548;2023-07-13T02:10:19;17.80;99.90
72865;DHT22;61000;48.120;11.548;2023-07-13T02:12:48;17.80;99.90
72865;DHT22;61000;48.120;11.548;2023-07-13T02:15:16;17.90;99.90
72865;DHT22;61000;48.120;11.548;2023-07-13T02:17:43;17.90;99.90
72865;DHT22;61000;48.120;11.548;2023-07-13T02:20:10;17.80;99.90
72865;DHT22;61000;48.120;11.548;2023-07-13T02:22:37;17.90;99.90
72865;DHT22;61000;48.120;11.548;2023-07-13T02:25:05;17.80;99.90
72865;DHT22;61000;48.120;11.548;2023-07-13T02:27:32;17.90;99.90
72865;DHT22;61000;48.120;11.548;2023-07-13T02:30:00;17.90;99.90
72865;DHT22;61000;48.120;11.548;2023-07-13T02:32:27;17.90;99.90
72865;DHT22;61000;48.120;11.548;2023-07-13T02:34:54;17.90;99.90
72865;DHT22;61000;48.120;11.548;2023-07-13T02:37:21;17.80;99.90
72865;DHT22;61000;48.120;11.548;2023-07-13T02:39:48;17.80;99.90
72865;DHT22;61000;48.120;11.548;2023-07-13T02:42:15;17.80;99.90
72865;DHT22;61000;48.120;11.548;2023-07-13T02:44:43;17.80;99.90
72865;DHT22;61000;48.120;11.548;2023-07-13T02:47:12;17.80;99.90
72865;DHT22;61000;48.120;11.548;2023-07-13T02:49:39;17.80;99.90
72865;DHT22;61000;48.120;11.548;2023-07-13T02:52:06;17.90;99.90
72865;DHT22;61000;48.120;11.548;2023-07-13T02:54:33;17.80;99.90
72865;DHT22;61000;48.120;11.548;2023-07-13T02:57:00;17.80;99.90
72865;DHT22;61000;48.120;11.548;2023-07-13T02:59:27;17.80;99.90
72865;DHT22;61000;48.120;11.548;2023-07-13T03:01:53;17.70;99.90
72865;DHT22;61000;48.120;11.548;2023-07-13T03:04:22;17.70;99.90
72865;DHT22;61000;48.120;11.548;2023-07-13T03:06:49;17.70;99.90
72865;DHT22;61000;48.120;11.548;2023-07-13T03:09:16;17.60;99.90
72865;DHT22;61000;48.120;11.548;2023-07-13T03:11:48;17.60;99.90
72865;DHT22;61000;48.120;11.548;2023-07-13T03:14:23;17.40;99.90
72865;DHT22;61000;48.120;11.548;2023-07-13T03:16:51;17.30;99.90
72865;DHT22;61000;48.120;11.548;2023-07-13T03:19:22;17.20;99.90
72865;DHT22;61000;48.120;11.548;2023-07-13T03:21:50;17.10;99.90
72865;DHT22;61000;48.120;11.548;2023-07-13T03:24:17;17.00;99.90
72865;DHT22;61000;48.120;11.548;2023-07-13T03:26:44;17.00;99.90
72865;DHT22;61000;48.120;11.548;2023-07-13T03:29:11;16.90;99.90
72865;DHT22;61000;48.120;11.548;2023-07-13T03:31:38;16.90;99.90
72865;DHT22;61000;48.120;11.548;2023-07-13T03:34:05;16.80;99.90
72865;DHT22;61000;48.120;11.548;2023-07-13T03:36:34;16.80;99.90
72865;DHT22;61000;48.120;11.548;2023-07-13T03:39:04;16.70;99.90
72865;DHT22;61000;48.120;11.548;2023-07-13T03:41:46;16.70;99.90
72865;DHT22;61000;48.120;11.548;2023-07-13T03:44:15;16.70;99.90
72865;DHT22;61000;48.120;11.548;2023-07-13T03:46:42;16.70;99.90
72865;DHT22;61000;48.120;11.548;2023-07-13T03:49:10;16.70;99.90
72865;DHT22;61000;48.120;11.548;2023-07-13T03:51:39;16.70;99.90
72865;DHT22;61000;48.120;11.548;2023-07-13T03:54:06;16.80;99.90
72865;DHT22;61000;48.120;11.548;2023-07-13T03:56:33;16.80;99.90
72865;DHT22;61000;48.120;11.548;2023-07-13T03:59:01;16.80;99.90
72865;DHT22;61000;48.120;11.548;2023-07-13T04:01:29;16.80;99.90
72865;DHT22;61000;48.120;11.548;2023-07-13T04:03:56;16.90;99.90
72865;DHT22;61000;48.120;11.548;2023-07-13T04:06:26;16.90;99.90
72865;DHT22;61000;48.120;11.548;2023-07-13T04:08:57;16.90;99.90
72865;DHT22;61000;48.120;11.548;2023-07-13T04:11:26;16.80;99.90
72865;DHT22;61000;48.120;11.548;2023-07-13T04:13:54;16.80;99.90
72865;DHT22;61000;48.120;11.548;2023-07-13T04:16:21;16.80;99.90
72865;DHT22;61000;48.120;11.548;2023-07-13T04:18:49;16.70;99.90
72865;DHT22;61000;48.120;11.548;2023-07-13T04:21:16;16.70;99.90
72865;DHT22;61000;48.120;11.548;2023-07-13T04:23:43;16.70;99.90
72865;DHT22;61000;48.120;11.548;2023-07-13T04:26:12;16.70;99.90
72865;DHT22;61000;48.120;11.548;2023-07-13T04:28:38;16.70;99.90
72865;DHT22;61000;48.120;11.548;2023-07-13T04:31:05;16.70;99.90
72865;DHT22;61000;48.120;11.548;2023-07-13T04:33:32;16.70;99.90
72865;DHT22;61000;48.120;11.548;2023-07-13T04:35:59;16.70;99.90
72865;DHT22;61000;48.120;11.548;2023-07-13T04:38:29;16.70;99.90
72865;DHT22;61000;48.120;11.548;2023-07-13T04:40:57;16.80;99.90
72865;DHT22;61000;48.120;11.548;2023-07-13T04:43:27;16.70;99.90
72865;DHT22;61000;48.120;11.548;2023-07-13T04:45:54;16.70;99.90
72865;DHT22;61000;48.120;11.548;2023-07-13T04:48:22;16.60;99.90
72865;DHT22;61000;48.120;11.548;2023-07-13T04:50:54;16.60;99.90
72865;DHT22;61000;48.120;11.548;2023-07-13T04:53:22;16.70;99.90
72865;DHT22;61000;48.120;11.548;2023-07-13T04:55:49;16.70;99.90
72865;DHT22;61000;48.120;11.548;2023-07-13T04:58:17;16.70;99.90
72865;DHT22;61000;48.120;11.548;2023-07-13T05:00:45;16.70;99.90
72865;DHT22;61000;48.120;11.548;2023-07-13T05:03:12;16.70;99.90
72865;DHT22;61000;48.120;11.548;2023-07-13T05:05:39;16.70;99.90
72865;DHT22;61000;48.120;11.548;2023-07-13T05:08:06;16.70;99.90
72865;DHT22;61000;48.120;11.548;2023-07-13T05:10:33;16.70;99.90
72865;DHT22;61000;48.120;11.548;2023-07-13T05:13:00;16.70;99.90
72865;DHT22;61000;48.120;11.548;2023-07-13T05:15:28;16.70;99.90
72865;DHT22;61000;48.120;11.548;2023-07-13T05:17:56;16.70;99.90
72865;DHT22;61000;48.120;11.548;2023-07-13T05:20:24;16.70;99.90
72865;DHT22;61000;48.120;11.548;2023-07-13T05:22:50;16.70;99.90
72865;DHT22;61000;48.120;11.548;2023-07-13T05:25:17;16.70;99.90
72865;DHT22;61000;48.120;11.548;2023-07-13T05:27:44;16.80;99.90
72865;DHT22;61000;48.120;11.548;2023-07-13T05:30:13;16.80;99.90
72865;DHT22;61000;48.120;11.548;2023-07-13T05:32:40;16.80;99.90
72865;DHT22;61000;48.120;11.548;2023-07-13T05:35:08;16.80;99.90
72865;DHT22;61000;48.120;11.548;2023-07-13T05:37:37;16.80;99.90
72865;DHT22;61000;48.120;11.548;2023-07-13T05:40:07;16.80;99.90
72865;DHT22;61000;48.120;11.548;2023-07-13T05:42:34;16.90;99.90
72865;DHT22;61000;48.120;11.548;2023-07-13T05:45:02;16.90;99.90
72865;DHT22;61000;48.120;11.548;2023-07-13T05:47:29;17.00;99.90
72865;DHT22;61000;48.120;11.548;2023-07-13T05:49:55;17.00;99.90
72865;DHT22;61000;48.120;11.548;2023-07-13T05:52:24;17.00;99.90
72865;DHT22;61000;48.120;11.548;2023-07-13T05:54:51;17.00;99.90
72865;DHT22;61000;48.120;11.548;2023-07-13T05:57:18;17.00;99.90
72865;DHT22;61000;48.120;11.548;2023-07-13T05:59:45;17.00;99.90
72865;DHT22;61000;48.120;11.548;2023-07-13T06:02:14;17.20;99.90
72865;DHT22;61000;48.120;11.548;2023-07-13T06:04:41;17.30;99.90
72865;DHT22;61000;48.120;11.548;2023-07-13T06:07:08;17.30;99.90
72865;DHT22;61000;48.120;11.548;2023-07-13T06:09:37;17.40;99.90
72865;DHT22;61000;48.120;11.548;2023-07-13T06:12:05;17.30;99.90
72865;DHT22;61000;48.120;11.548;2023-07-13T06:14:32;17.50;99.90
72865;DHT22;61000;48.120;11.548;2023-07-13T06:16:58;17.50;99.90
72865;DHT22;61000;48.120;11.548;2023-07-13T06:19:25;17.50;99.90
72865;DHT22;61000;48.120;11.548;2023-07-13T06:21:52;17.60;99.90
72865;DHT22;61000;48.120;11.548;2023-07-13T06:24:19;17.70;99.90
72865;DHT22;61000;48.120;11.548;2023-07-13T06:26:47;17.90;99.90
72865;DHT22;61000;48.120;11.548;2023-07-13T06:29:14;18.00;99.90
72865;DHT22;61000;48.120;11.548;2023-07-13T06:31:41;18.20;99.90
72865;DHT22;61000;48.120;11.548;2023-07-13T06:34:08;18.40;99.90
72865;DHT22;61000;48.120;11.548;2023-07-13T06:36:35;18.50;99.90
72865;DHT22;61000;48.120;11.548;2023-07-13T06:39:04;18.70;99.90
72865;DHT22;61000;48.120;11.548;2023-07-13T06:41:35;18.80;99.90
72865;DHT22;61000;48.120;11.548;2023-07-13T06:44:08;18.70;99.90
72865;DHT22;61000;48.120;11.548;2023-07-13T06:46:34;18.80;99.90
72865;DHT22;61000;48.120;11.548;2023-07-13T06:49:01;18.80;99.90
72865;DHT22;61000;48.120;11.548;2023-07-13T06:51:31;18.80;99.90
72865;DHT22;61000;48.120;11.548;2023-07-13T06:53:58;18.80;99.90
72865;DHT22;61000;48.120;11.548;2023-07-13T06:56:25;18.80;99.90
72865;DHT22;61000;48.120;11.548;2023-07-13T06:58:52;18.90;99.90
72865;DHT22;61000;48.120;11.548;2023-07-13T07:01:20;18.90;99.90
72865;DHT22;61000;48.120;11.548;2023-07-13T07:03:47;19.00;99.90
72865;DHT22;61000;48.120;11.548;2023-07-13T07:06:19;18.90;99.90
72865;DHT22;61000;48.120;11.548;2023-07-13T07:08:47;19.00;99.90
72865;DHT22;61000;48.120;11.548;2023-07-13T07:11:16;18.90;99.90
72865;DHT22;61000;48.120;11.548;2023-07-13T07:13:43;18.80;99.90
72865;DHT22;61000;48.120;11.548;2023-07-13T07:16:10;18.90;99.90
72865;DHT22;61000;48.120;11.548;2023-07-13T07:18:39;18.90;99.90
72865;DHT22;61000;48.120;11.548;2023-07-13T07:21:06;18.70;99.90
72865;DHT22;61000;48.120;11.548;2023-07-13T07:23:33;18.60;99.90
72865;DHT22;61000;48.120;11.548;2023-07-13T07:25:59;18.70;99.90
72865;DHT22;61000;48.120;11.548;2023-07-13T07:28:26;18.80;99.90
72865;DHT22;61000;48.120;11.548;2023-07-13T07:30:55;18.70;99.90
72865;DHT22;61000;48.120;11.548;2023-07-13T07:33:23;18.70;99.90
72865;DHT22;61000;48.120;11.548;2023-07-13T07:35:52;18.60;99.90
72865;DHT22;61000;48.120;11.548;2023-07-13T07:38:19;18.70;99.90
72865;DHT22;61000;48.120;11.548;2023-07-13T07:40:46;18.70;99.90
72865;DHT22;61000;48.120;11.548;2023-07-13T07:43:16;18.70;99.90
72865;DHT22;61000;48.120;11.548;2023-07-13T07:45:44;18.70;99.90
72865;DHT22;61000;48.120;11.548;2023-07-13T07:48:11;18.70;99.90
72865;DHT22;61000;48.120;11.548;2023-07-13T07:50:39;18.80;99.90
72865;DHT22;61000;48.120;11.548;2023-07-13T07:53:07;18.80;99.90
72865;DHT22;61000;48.120;11.548;2023-07-13T07:55:36;18.80;99.90
72865;DHT22;61000;48.120;11.548;2023-07-13T07:58:03;18.80;99.90
72865;DHT22;61000;48.120;11.548;2023-07-13T08:00:30;18.70;99.90
72865;DHT22;61000;48.120;11.548;2023-07-13T08:02:58;18.60;99.90
72865;DHT22;61000;48.120;11.548;2023-07-13T08:05:25;18.60;99.90
72865;DHT22;61000;48.120;11.548;2023-07-13T08:07:52;18.60;99.90
72865;DHT22;61000;48.120;11.548;2023-07-13T08:10:21;18.50;99.90
72865;DHT22;61000;48.120;11.548;2023-07-13T08:12:48;18.50;99.90
72865;DHT22;61000;48.120;11.548;2023-07-13T08:15:16;18.50;99.90
72865;DHT22;61000;48.120;11.548;2023-07-13T08:17:46;18.50;99.90
72865;DHT22;61000;48.120;11.548;2023-07-13T08:20:13;18.40;99.90
72865;DHT22;61000;48.120;11.548;2023-07-13T08:22:40;18.50;99.90
72865;DHT22;61000;48.120;11.548;2023-07-13T08:25:08;18.40;99.90
72865;DHT22;61000;48.120;11.548;2023-07-13T08:27:36;18.40;99.90
72865;DHT22;61000;48.120;11.548;2023-07-13T08:30:04;18.30;99.90
72865;DHT22;61000;48.120;11.548;2023-07-13T08:32:31;18.30;99.90
72865;DHT22;61000;48.120;11.548;2023-07-13T08:34:58;18.20;99.90
72865;DHT22;61000;48.120;11.548;2023-07-13T08:37:25;18.30;99.90
72865;DHT22;61000;48.120;11.548;2023-07-13T08:39:52;18.20;99.90
72865;DHT22;61000;48.120;11.548;2023-07-13T08:42:30;18.20;99.90
72865;DHT22;61000;48.120;11.548;2023-07-13T08:45:07;18.20;99.90
72865;DHT22;61000;48.120;11.548;2023-07-13T08:47:39;18.20;99.90
72865;DHT22;61000;48.120;11.548;2023-07-13T08:50:12;18.20;99.90
72865;DHT22;61000;48.120;11.548;2023-07-13T08:52:42;18.30;99.90
72865;DHT22;61000;48.120;11.548;2023-07-13T08:55:13;18.40;99.90
72865;DHT22;61000;48.120;11.548;2023-07-13T08:57:43;18.40;99.90
72865;DHT22;61000;48.120;11.548;2023-07-13T09:00:13;18.40;99.90
72865;DHT22;61000;48.120;11.548;2023-07-13T09:02:45;18.40;99.90
72865;DHT22;61000;48.120;11.548;2023-07-13T09:05:17;18.50;99.90
72865;DHT22;61000;48.120;11.548;2023-07-13T09:08:04;18.40;99.90
72865;DHT22;61000;48.120;11.548;2023-07-13T09:10:42;18.50;99.90
72865;DHT22;61000;48.120;11.548;2023-07-13T09:13:23;18.50;99.90
72865;DHT22;61000;48.120;11.548;2023-07-13T09:15:54;18.70;99.90
72865;DHT22;61000;48.120;11.548;2023-07-13T09:18:26;18.70;99.90
72865;DHT22;61000;48.120;11.548;2023-07-13T09:20:58;18.60;99.90
72865;DHT22;61000;48.120;11.548;2023-07-13T09:23:28;18.70;99.90
72865;DHT22;61000;48.120;11.548;2023-07-13T09:26:01;18.90;99.90
72865;DHT22;61000;48.120;11.548;2023-07-13T09:28:31;19.00;99.90
72865;DHT22;61000;48.120;11.548;2023-07-13T09:31:06;19.10;99.90
72865;DHT22;61000;48.120;11.548;2023-07-13T09:33:33;19.20;99.90
72865;DHT22;61000;48.120;11.548;2023-07-13T09:36:07;19.30;99.90
72865;DHT22;61000;48.120;11.548;2023-07-13T09:38:43;19.30;99.90
72865;DHT22;61000;48.120;11.548;2023-07-13T09:41:21;19.20;99.90
72865;DHT22;61000;48.120;11.548;2023-07-13T09:44:08;19.20;99.90
72865;DHT22;61000;48.120;11.548;2023-07-13T09:46:42;19.30;99.90
72865;DHT22;61000;48.120;11.548;2023-07-13T09:49:10;19.30;99.90
72865;DHT22;61000;48.120;11.548;2023-07-13T09:51:37;19.50;99.90
72865;DHT22;61000;48.120;11.548;2023-07-13T09:54:05;19.60;99.90
72865;DHT22;61000;48.120;11.548;2023-07-13T09:56:37;19.70;99.90
72865;DHT22;61000;48.120;11.548;2023-07-13T09:59:04;19.80;99.90
72865;DHT22;61000;48.120;11.548;2023-07-13T10:01:32;20.00;99.90
72865;DHT22;61000;48.120;11.548;2023-07-13T10:04:01;20.20;99.90
72865;DHT22;61000;48.120;11.548;2023-07-13T10:06:28;20.40;99.90
72865;DHT22;61000;48.120;11.548;2023-07-13T10:08:56;20.50;99.90
72865;DHT22;61000;48.120;11.548;2023-07-13T10:11:26;20.70;99.90
72865;DHT22;61000;48.120;11.548;2023-07-13T10:13:56;21.00;99.90
72865;DHT22;61000;48.120;11.548;2023-07-13T10:16:26;21.20;98.60
72865;DHT22;61000;48.120;11.548;2023-07-13T10:19:02;21.80;98.80
72865;DHT22;61000;48.120;11.548;2023-07-13T10:21:34;22.10;97.90
72865;DHT22;61000;48.120;11.548;2023-07-13T10:26:34;22.90;96.70
72865;DHT22;61000;48.120;11.548;2023-07-13T10:29:04;22.90;95.90
72865;DHT22;61000;48.120;11.548;2023-07-13T10:31:34;23.00;92.30
72865;DHT22;61000;48.120;11.548;2023-07-13T10:34:04;22.90;90.60
72865;DHT22;61000;48.120;11.548;2023-07-13T10:36:36;23.00;90.60
72865;DHT22;61000;48.120;11.548;2023-07-13T10:39:05;23.60;89.70
72865;DHT22;61000;48.120;11.548;2023-07-13T10:41:38;23.60;86.40
72865;DHT22;61000;48.120;11.548;2023-07-13T10:44:13;23.00;84.60
72865;DHT22;61000;48.120;11.548;2023-07-13T10:46:43;23.10;85.50
72865;DHT22;61000;48.120;11.548;2023-07-13T10:49:12;23.20;83.80
72865;DHT22;61000;48.120;11.548;2023-07-13T10:51:40;23.20;83.80
72865;DHT22;61000;48.120;11.548;2023-07-13T10:54:19;23.10;83.20
72865;DHT22;61000;48.120;11.548;2023-07-13T10:56:50;23.20;84.40
72865;DHT22;61000;48.120;11.548;2023-07-13T10:59:18;22.70;85.50
72865;DHT22;61000;48.120;11.548;2023-07-13T11:01:52;22.50;88.00
72865;DHT22;61000;48.120;11.548;2023-07-13T11:04:23;22.60;89.00
72865;DHT22;61000;48.120;11.548;2023-07-13T11:06:56;22.60;89.00
72865;DHT22;61000;48.120;11.548;2023-07-13T11:09:37;22.50;89.70
72865;DHT22;61000;48.120;11.548;2023-07-13T11:12:26;22.80;88.90
72865;DHT22;61000;48.120;11.548;2023-07-13T11:15:06;23.00;87.60
72865;DHT22;61000;48.120;11.548;2023-07-13T11:17:45;23.30;90.40
72865;DHT22;61000;48.120;11.548;2023-07-13T11:20:31;23.10;89.60
72865;DHT22;61000;48.120;11.548;2023-07-13T11:23:19;22.90;89.30
72865;DHT22;61000;48.120;11.548;2023-07-13T11:25:47;22.80;90.10
72865;DHT22;61000;48.120;11.548;2023-07-13T11:28:18;23.00;89.90
72865;DHT22;61000;48.120;11.548;2023-07-13T11:30:49;23.00;89.40
72865;DHT22;61000;48.120;11.548;2023-07-13T11:33:20;23.00;90.00
72865;DHT22;61000;48.120;11.548;2023-07-13T11:35:53;23.30;90.20
72865;DHT22;61000;48.120;11.548;2023-07-13T11:38:32;23.30;87.80
72865;DHT22;61000;48.120;11.548;2023-07-13T11:41:03;23.40;89.20
72865;DHT22;61000;48.120;11.548;2023-07-13T11:43:31;23.50;86.10
72865;DHT22;61000;48.120;11.548;2023-07-13T11:46:12;23.50;83.00
72865;DHT22;61000;48.120;11.548;2023-07-13T11:48:39;23.30;82.40
72865;DHT22;61000;48.120;11.548;2023-07-13T11:51:17;23.20;82.70
72865;DHT22;61000;48.120;11.548;2023-07-13T11:53:48;23.30;80.50
72865;DHT22;61000;48.120;11.548;2023-07-13T11:56:15;23.30;82.70
72865;DHT22;61000;48.120;11.548;2023-07-13T11:58:43;23.10;81.90
72865;DHT22;61000;48.120;11.548;2023-07-13T12:01:17;23.20;82.70
72865;DHT22;61000;48.120;11.548;2023-07-13T12:03:45;23.30;81.40
72865;DHT22;61000;48.120;11.548;2023-07-13T12:06:26;23.10;82.00
72865;DHT22;61000;48.120;11.548;2023-07-13T12:08:57;23.20;82.90
72865;DHT22;61000;48.120;11.548;2023-07-13T12:11:24;23.20;83.20
72865;DHT22;61000;48.120;11.548;2023-07-13T12:13:52;23.20;83.30
72865;DHT22;61000;48.120;11.548;2023-07-13T12:16:25;23.50;82.90
72865;DHT22;61000;48.120;11.548;2023-07-13T12:18:53;23.20;83.50
72865;DHT22;61000;48.120;11.548;2023-07-13T12:21:26;23.40;84.30
72865;DHT22;61000;48.120;11.548;2023-07-13T12:23:55;23.40;84.50
72865;DHT22;61000;48.120;11.548;2023-07-13T12:26:22;23.40;82.40
72865;DHT22;61000;48.120;11.548;2023-07-13T12:28:52;23.30;83.40
72865;DHT22;61000;48.120;11.548;2023-07-13T12:31:40;23.10;83.90
72865;DHT22;61000;48.120;11.548;2023-07-13T12:34:10;23.00;84.00
72865;DHT22;61000;48.120;11.548;2023-07-13T12:36:41;22.80;84.30
72865;DHT22;61000;48.120;11.548;2023-07-13T12:39:14;22.90;85.30
72865;DHT22;61000;48.120;11.548;2023-07-13T12:41:42;23.00;86.40
72865;DHT22;61000;48.120;11.548;2023-07-13T12:44:15;23.10;85.80
72865;DHT22;61000;48.120;11.548;2023-07-13T12:46:52;23.10;86.10
72865;DHT22;61000;48.120;11.548;2023-07-13T12:49:24;22.90;86.00
72865;DHT22;61000;48.120;11.548;2023-07-13T12:51:56;22.80;86.00
72865;DHT22;61000;48.120;11.548;2023-07-13T12:54:25;22.90;85.70
72865;DHT22;61000;48.120;11.548;2023-07-13T12:56:53;23.00;86.10
72865;DHT22;61000;48.120;11.548;2023-07-13T12:59:23;23.10;85.20
72865;DHT22;61000;48.120;11.548;2023-07-13T13:01:51;23.10;85.40
72865;DHT22;61000;48.120;11.548;2023-07-13T13:04:20;23.20;85.00
72865;DHT22;61000;48.120;11.548;2023-07-13T13:06:49;23.30;84.80
72865;DHT22;61000;48.120;11.548;2023-07-13T13:09:18;23.20;83.10
72865;DHT22;61000;48.120;11.548;2023-07-13T13:11:45;23.40;82.70
72865;DHT22;61000;48.120;11.548;2023-07-13T13:14:13;23.40;82.50
72865;DHT22;61000;48.120;11.548;2023-07-13T13:16:46;23.60;81.70
72865;DHT22;61000;48.120;11.548;2023-07-13T13:19:16;23.70;81.60
72865;DHT22;61000;48.120;11.548;2023-07-13T13:21:45;24.00;80.90
72865;DHT22;61000;48.120;11.548;2023-07-13T13:24:14;24.20;80.80
72865;DHT22;61000;48.120;11.548;2023-07-13T13:26:43;24.50;79.30
72865;DHT22;61000;48.120;11.548;2023-07-13T13:29:12;24.50;78.30
72865;DHT22;61000;48.120;11.548;2023-07-13T13:31:41;24.30;78.20
72865;DHT22;61000;48.120;11.548;2023-07-13T13:34:09;24.10;78.70
72865;DHT22;61000;48.120;11.548;2023-07-13T13:36:37;23.90;77.60
72865;DHT22;61000;48.120;11.548;2023-07-13T13:39:08;23.70;78.10
72865;DHT22;61000;48.120;11.548;2023-07-13T13:41:43;23.70;78.40
72865;DHT22;61000;48.120;11.548;2023-07-13T13:44:16;23.60;79.40
72865;DHT22;61000;48.120;11.548;2023-07-13T13:46:45;23.60;79.60
72865;DHT22;61000;48.120;11.548;2023-07-13T13:49:15;23.50;78.80
72865;DHT22;61000;48.120;11.548;2023-07-13T13:51:43;23.40;78.80
72865;DHT22;61000;48.120;11.548;2023-07-13T13:54:12;23.50;80.60
72865;DHT22;61000;48.120;11.548;2023-07-13T13:56:42;23.40;79.70
72865;DHT22;61000;48.120;11.548;2023-07-13T13:59:10;23.20;80.60
72865;DHT22;61000;48.120;11.548;2023-07-13T14:01:37;23.10;80.40
72865;DHT22;61000;48.120;11.548;2023-07-13T14:04:06;23.30;81.60
72865;DHT22;61000;48.120;11.548;2023-07-13T14:06:34;23.40;80.50
72865;DHT22;61000;48.120;11.548;2023-07-13T14:09:01;23.60;80.70
72865;DHT22;61000;48.120;11.548;2023-07-13T14:11:31;23.70;80.10
72865;DHT22;61000;48.120;11.548;2023-07-13T14:14:00;23.30;79.60
72865;DHT22;61000;48.120;11.548;2023-07-13T14:16:31;23.00;80.10
72865;DHT22;61000;48.120;11.548;2023-07-13T14:18:58;23.00;80.90
72865;DHT22;61000;48.120;11.548;2023-07-13T14:21:27;23.10;80.70
72865;DHT22;61000;48.120;11.548;2023-07-13T14:23:54;23.30;81.00
72865;DHT22;61000;48.120;11.548;2023-07-13T14:26:23;23.50;80.00
72865;DHT22;61000;48.120;11.548;2023-07-13T14:28:52;23.50;80.10
72865;DHT22;61000;48.120;11.548;2023-07-13T14:31:22;23.70;78.60
72865;DHT22;61000;48.120;11.548;2023-07-13T14:33:50;24.00;78.00
72865;DHT22;61000;48.120;11.548;2023-07-13T14:36:25;24.10;77.40
72865;DHT22;61000;48.120;11.548;2023-07-13T14:38:53;24.00;76.50
72865;DHT22;61000;48.120;11.548;2023-07-13T14:41:20;23.80;77.30
72865;DHT22;61000;48.120;11.548;2023-07-13T14:43:47;23.60;77.60
72865;DHT22;61000;48.120;11.548;2023-07-13T14:46:27;23.70;77.60
72865;DHT22;61000;48.120;11.548;2023-07-13T14:49:00;24.00;78.50
72865;DHT22;61000;48.120;11.548;2023-07-13T14:51:28;24.20;77.00
72865;DHT22;61000;48.120;11.548;2023-07-13T14:53:55;24.10;76.30
72865;DHT22;61000;48.120;11.548;2023-07-13T14:56:22;24.20;77.10
72865;DHT22;61000;48.120;11.548;2023-07-13T14:58:49;23.90;75.40
72865;DHT22;61000;48.120;11.548;2023-07-13T15:01:16;23.90;76.60
72865;DHT22;61000;48.120;11.548;2023-07-13T15:03:47;24.00;75.90
72865;DHT22;61000;48.120;11.548;2023-07-13T15:06:14;24.00;75.90
72865;DHT22;61000;48.120;11.548;2023-07-13T15:08:41;24.00;75.10
72865;DHT22;61000;48.120;11.548;2023-07-13T15:11:09;23.90;76.80
72865;DHT22;61000;48.120;11.548;2023-07-13T15:13:37;24.10;76.80
72865;DHT22;61000;48.120;11.548;2023-07-13T15:16:05;24.10;74.70
72865;DHT22;61000;48.120;11.548;2023-07-13T15:18:38;23.70;75.20
72865;DHT22;61000;48.120;11.548;2023-07-13T15:21:10;23.90;76.40
72865;DHT22;61000;48.120;11.548;2023-07-13T15:23:39;23.90;75.00
72865;DHT22;61000;48.120;11.548;2023-07-13T15:26:10;24.00;75.40
72865;DHT22;61000;48.120;11.548;2023-07-13T15:28:38;24.20;76.90
72865;DHT22;61000;48.120;11.548;2023-07-13T15:31:18;24.10;74.50